Time;durP1;ratioP1;P1;durP2;ratioP2;P2;SDS_P1;SDS_P2;PMS_P1;PMS_P2;Temp;Humidity;BMP_temperature;BMP_pressure;BME280_temperature;BME280_humidity;BME280_pressure;Samples;Min_cycle;Max_cycle;Signal;HPM_P1;HPM_P2
2023/05/24 00:00:11;;;;;;;8.98;3.00;;;13.00;76.10;;;;;;5056950;28;20048;-78
2023/05/24 00:02:40;;;;;;;7.43;3.10;;;13.00;76.00;;;;;;5054262;28;20051;-70
2023/05/24 00:05:08;;;;;;;6.65;3.10;;;12.90;76.20;;;;;;5064242;28;20132;-70
2023/05/24 00:07:36;;;;;;;7.63;3.03;;;12.90;76.40;;;;;;5052805;28;20136;-63
2023/05/24 00:10:05;;;;;;;9.85;3.72;;;12.80;76.60;;;;;;5064231;28;20049;-64
2023/05/24 00:12:31;;;;;;;9.15;3.17;;;12.80;77.00;;;;;;5069998;28;20041;-68
2023/05/24 00:14:59;;;;;;;8.88;2.75;;;12.80;77.00;;;;;;5067817;28;20072;-68
2023/05/24 00:17:26;;;;;;;9.00;3.03;;;12.80;77.20;;;;;;5068186;28;20418;-67
2023/05/24 00:19:53;;;;;;;5.18;2.60;;;12.80;77.50;;;;;;5069831;28;20071;-68
2023/05/24 00:22:20;;;;;;;8.73;2.80;;;12.80;77.90;;;;;;5064896;28;20072;-60
2023/05/24 00:24:47;;;;;;;5.70;2.90;;;12.80;78.00;;;;;;5066064;28;20048;-62
2023/05/24 00:27:16;;;;;;;10.02;2.95;;;12.70;77.90;;;;;;5065190;28;20043;-68
2023/05/24 00:29:42;;;;;;;5.32;2.60;;;12.70;77.70;;;;;;5040539;28;20048;-68
2023/05/24 00:32:09;;;;;;;9.52;3.10;;;12.60;77.50;;;;;;5068452;28;20049;-76
2023/05/24 00:34:37;;;;;;;7.80;2.55;;;12.60;77.50;;;;;;5067952;28;20044;-76
2023/05/24 00:37:06;;;;;;;6.78;2.80;;;12.60;77.60;;;;;;5069425;28;20045;-72
2023/05/24 00:39:33;;;;;;;8.15;2.53;;;12.60;77.80;;;;;;5064623;28;20044;-71
2023/05/24 00:42:00;;;;;;;6.30;2.78;;;12.60;77.80;;;;;;5070604;28;20041;-70
2023/05/24 00:44:28;;;;;;;9.05;2.60;;;12.60;77.60;;;;;;5045050;28;20408;-67
2023/05/24 00:46:55;;;;;;;7.80;2.75;;;12.60;77.80;;;;;;5054103;28;20053;-71
2023/05/24 00:49:23;;;;;;;6.43;2.67;;;12.60;78.10;;;;;;5045554;28;20064;-71
2023/05/24 00:51:51;;;;;;;8.35;2.38;;;12.50;78.20;;;;;;5068855;28;20499;-71
2023/05/24 00:54:19;;;;;;;8.43;3.33;;;12.40;78.40;;;;;;5050352;28;20045;-70
2023/05/24 00:56:47;;;;;;;8.15;3.03;;;12.40;78.50;;;;;;5048272;28;20472;-75
2023/05/24 00:59:15;;;;;;;4.95;2.50;;;12.40;78.50;;;;;;5063858;28;20135;-78
2023/05/24 01:01:45;;;;;;;11.70;3.38;;;12.40;78.30;;;;;;5048283;28;20044;-62
2023/05/24 01:04:16;;;;;;;7.45;2.83;;;12.50;78.00;;;;;;5048602;28;20060;-66
2023/05/24 01:06:58;;;;;;;6.53;2.45;;;12.40;78.00;;;;;;5065903;28;20048;-78
2023/05/24 01:09:32;;;;;;;7.72;2.90;;;12.40;78.20;;;;;;5041393;28;20052;-77
2023/05/24 01:12:11;;;;;;;11.18;3.10;;;12.40;78.30;;;;;;5059434;28;20124;-67
2023/05/24 01:14:48;;;;;;;8.18;2.70;;;12.40;78.30;;;;;;5048222;28;20052;-68
2023/05/24 01:17:25;;;;;;;8.00;3.22;;;12.30;77.80;;;;;;5069226;28;20068;-77
2023/05/24 01:19:58;;;;;;;9.18;2.75;;;12.30;77.50;;;;;;5064936;28;20049;-76
2023/05/24 01:22:49;;;;;;;7.45;2.88;;;12.40;77.50;;;;;;5066986;28;20602;-63
2023/05/24 01:25:27;;;;;;;8.82;2.90;;;12.30;77.40;;;;;;5067942;28;20052;-63
2023/05/24 01:27:55;;;;;;;8.35;2.42;;;12.30;77.40;;;;;;5066051;28;20055;-62
2023/05/24 01:30:25;;;;;;;7.82;2.70;;;12.30;76.90;;;;;;5066403;28;20054;-62
2023/05/24 01:32:52;;;;;;;7.90;2.80;;;12.30;76.80;;;;;;5068197;28;20508;-61
2023/05/24 01:35:19;;;;;;;8.50;3.28;;;12.30;76.70;;;;;;5047683;28;20059;-62
2023/05/24 01:37:46;;;;;;;8.48;3.13;;;12.20;76.20;;;;;;5066913;28;20144;-62
2023/05/24 01:40:13;;;;;;;9.07;2.55;;;12.20;75.90;;;;;;5066694;28;20208;-63
2023/05/24 01:42:45;;;;;;;9.98;2.67;;;12.20;75.70;;;;;;5065441;28;20089;-63
2023/05/24 01:45:19;;;;;;;10.63;2.80;;;12.20;75.40;;;;;;5063198;28;20049;-62
2023/05/24 01:47:58;;;;;;;8.25;2.40;;;12.20;75.20;;;;;;5040296;28;20503;-67
2023/05/24 01:50:31;;;;;;;7.00;2.63;;;12.20;74.60;;;;;;5065535;28;20049;-69
2023/05/24 01:53:02;;;;;;;5.95;2.45;;;12.20;74.80;;;;;;5064374;28;20072;-68
2023/05/24 01:55:32;;;;;;;8.98;2.80;;;12.20;74.60;;;;;;5049164;28;20549;-68
2023/05/24 01:58:02;;;;;;;8.52;3.13;;;12.30;74.10;;;;;;5046825;28;20049;-69
2023/05/24 02:00:32;;;;;;;6.90;2.75;;;12.30;73.80;;;;;;5028109;28;20055;-69
2023/05/24 02:03:01;;;;;;;7.25;2.80;;;12.30;73.50;;;;;;5063346;28;20049;-68
2023/05/24 02:05:28;;;;;;;6.60;2.55;;;12.20;73.50;;;;;;5054572;28;20098;-69
2023/05/24 02:07:55;;;;;;;11.65;3.05;;;12.20;73.80;;;;;;5048497;28;20052;-68
2023/05/24 02:10:23;;;;;;;10.18;2.50;;;12.20;73.40;;;;;;5049568;28;20123;-69
2023/05/24 02:12:50;;;;;;;9.13;2.72;;;12.10;73.20;;;;;;5068432;28;20109;-69
2023/05/24 02:15:17;;;;;;;7.40;2.70;;;12.20;72.30;;;;;;5064160;28;20044;-69
2023/05/24 02:17:46;;;;;;;6.93;2.40;;;12.30;71.60;;;;;;5059068;28;20045;-69
2023/05/24 02:20:16;;;;;;;7.00;2.55;;;12.20;71.50;;;;;;5067220;28;20095;-68
2023/05/24 02:22:42;;;;;;;10.15;2.72;;;12.20;71.20;;;;;;5048940;28;20106;-68
2023/05/24 02:25:09;;;;;;;6.35;2.38;;;12.10;71.50;;;;;;5047615;28;20400;-69
2023/05/24 02:27:36;;;;;;;8.18;2.70;;;12.20;71.10;;;;;;5051888;28;20057;-63
2023/05/24 02:30:04;;;;;;;10.32;2.83;;;12.10;71.20;;;;;;5046083;28;20053;-63
2023/05/24 02:32:31;;;;;;;8.80;2.50;;;12.10;71.30;;;;;;5048707;28;20048;-63
2023/05/24 02:35:00;;;;;;;6.78;2.38;;;12.00;71.10;;;;;;5044679;28;20057;-62
2023/05/24 02:37:27;;;;;;;8.18;2.45;;;12.00;71.40;;;;;;5048185;28;20411;-68
2023/05/24 02:39:54;;;;;;;10.43;2.70;;;12.00;71.10;;;;;;5060667;28;20479;-68
2023/05/24 02:42:21;;;;;;;9.05;2.17;;;12.00;71.00;;;;;;5067735;28;20094;-69
2023/05/24 02:44:51;;;;;;;11.13;2.88;;;12.00;70.70;;;;;;5045128;28;20439;-70
2023/05/24 02:47:18;;;;;;;11.20;2.45;;;11.90;70.90;;;;;;5046919;28;20051;-62
2023/05/24 02:49:45;;;;;;;8.02;2.55;;;11.90;70.70;;;;;;5057469;28;20559;-62
2023/05/24 02:52:14;;;;;;;10.93;2.80;;;11.90;71.00;;;;;;5063553;28;20052;-75
2023/05/24 02:54:41;;;;;;;9.70;2.57;;;11.90;70.30;;;;;;5045154;28;20052;-77
2023/05/24 02:57:08;;;;;;;8.85;2.30;;;11.80;70.60;;;;;;5062814;28;20126;-69
2023/05/24 02:59:35;;;;;;;8.50;2.38;;;11.80;70.90;;;;;;5046879;28;20051;-69
2023/05/24 03:02:02;;;;;;;8.57;2.17;;;11.70;70.90;;;;;;5044605;28;20087;-71
2023/05/24 03:04:29;;;;;;;7.57;2.53;;;11.70;71.60;;;;;;5062081;28;20151;-71
2023/05/24 03:06:56;;;;;;;7.15;2.30;;;11.70;71.80;;;;;;5051273;28;20060;-66
2023/05/24 03:09:26;;;;;;;9.52;2.40;;;11.70;71.70;;;;;;5052128;28;20056;-66
2023/05/24 03:11:53;;;;;;;10.88;2.33;;;11.70;72.30;;;;;;5041172;28;20417;-70
2023/05/24 03:14:22;;;;;;;6.93;2.15;;;11.60;72.50;;;;;;5042968;28;20509;-69
2023/05/24 03:16:49;;;;;;;8.18;2.28;;;11.60;72.40;;;;;;5042938;28;20053;-61
2023/05/24 03:19:17;;;;;;;9.40;2.30;;;11.50;72.40;;;;;;5059582;28;20049;-61
2023/05/24 03:21:44;;;;;;;10.20;2.67;;;11.50;72.70;;;;;;5048686;28;20084;-62
2023/05/24 03:24:11;;;;;;;11.32;2.53;;;11.40;72.60;;;;;;5060441;28;20036;-60
2023/05/24 03:26:40;;;;;;;7.43;2.35;;;11.50;72.80;;;;;;5037724;28;20044;-61
2023/05/24 03:29:07;;;;;;;8.25;2.60;;;11.40;73.00;;;;;;5043890;28;20047;-62
2023/05/24 03:31:38;;;;;;;9.55;2.50;;;11.40;72.90;;;;;;5044716;28;20056;-61
2023/05/24 03:34:06;;;;;;;7.82;2.40;;;11.30;73.30;;;;;;5059802;28;20055;-61
2023/05/24 03:36:35;;;;;;;8.30;2.28;;;11.20;73.20;;;;;;5041242;28;20059;-70
2023/05/24 03:39:03;;;;;;;7.50;2.30;;;11.20;73.20;;;;;;5045094;28;20072;-70
2023/05/24 03:41:33;;;;;;;8.55;2.58;;;11.20;73.20;;;;;;5055391;28;20045;-62
2023/05/24 03:44:02;;;;;;;8.65;2.30;;;11.20;73.20;;;;;;5064383;28;20075;-63
2023/05/24 03:46:30;;;;;;;9.13;2.45;;;11.20;73.50;;;;;;5048018;28;20128;-70
2023/05/24 03:48:57;;;;;;;9.82;2.88;;;11.20;73.30;;;;;;5066549;28;20044;-70
2023/05/24 03:51:28;;;;;;;8.23;2.75;;;11.20;73.00;;;;;;5060996;28;20036;-62
2023/05/24 03:53:56;;;;;;;10.15;2.97;;;11.20;73.00;;;;;;5055926;28;20280;-61
2023/05/24 03:56:22;;;;;;;8.05;2.65;;;11.20;73.10;;;;;;5063105;28;20052;-62
2023/05/24 03:58:51;;;;;;;10.43;3.08;;;11.10;73.20;;;;;;5042248;28;20114;-61
2023/05/24 04:01:19;;;;;;;8.48;2.55;;;11.30;72.30;;;;;;5047630;28;20055;-62
2023/05/24 04:03:46;;;;;;;9.82;2.50;;;11.20;72.20;;;;;;5057636;28;20064;-61
2023/05/24 04:06:13;;;;;;;8.55;2.80;;;11.20;72.20;;;;;;5037693;28;20056;-66
2023/05/24 04:08:40;;;;;;;8.82;2.22;;;11.10;73.00;;;;;;5043213;28;20049;-66
2023/05/24 04:11:10;;;;;;;8.18;2.50;;;11.00;73.30;;;;;;5047078;28;20097;-71
2023/05/24 04:13:37;;;;;;;10.23;2.85;;;11.10;73.50;;;;;;5068499;28;20052;-69
2023/05/24 04:16:04;;;;;;;8.82;2.60;;;11.00;73.50;;;;;;5048877;28;20580;-70
2023/05/24 04:18:32;;;;;;;8.75;2.50;;;11.10;73.50;;;;;;5065392;28;20075;-72
2023/05/24 04:20:59;;;;;;;9.50;2.83;;;11.10;73.40;;;;;;5062377;28;20677;-70
2023/05/24 04:23:26;;;;;;;8.95;2.70;;;11.10;73.10;;;;;;5042407;28;20059;-70
2023/05/24 04:25:53;;;;;;;11.07;2.45;;;11.10;72.90;;;;;;5053427;28;20052;-71
2023/05/24 04:28:21;;;;;;;9.35;2.38;;;11.10;73.10;;;;;;5041576;28;20044;-69
2023/05/24 04:30:48;;;;;;;7.25;2.60;;;11.10;73.20;;;;;;5061550;28;20090;-62
2023/05/24 04:33:15;;;;;;;10.95;2.42;;;11.20;73.10;;;;;;5046805;28;20059;-63
2023/05/24 04:35:44;;;;;;;8.52;2.45;;;11.10;72.70;;;;;;5049029;28;20044;-61
2023/05/24 04:38:11;;;;;;;10.30;2.80;;;11.10;72.70;;;;;;5036009;28;20086;-62
2023/05/24 04:40:39;;;;;;;7.35;2.25;;;11.10;73.00;;;;;;5066646;28;20049;-71
2023/05/24 04:43:06;;;;;;;9.85;2.78;;;11.00;73.30;;;;;;5062466;28;20047;-70
2023/05/24 04:45:37;;;;;;;10.05;2.75;;;11.00;73.30;;;;;;5061249;28;20076;-68
2023/05/24 04:48:05;;;;;;;11.20;2.92;;;10.90;73.10;;;;;;5065470;28;20050;-67
2023/05/24 04:50:34;;;;;;;7.47;2.17;;;10.90;73.20;;;;;;5068764;28;20102;-67
2023/05/24 04:53:02;;;;;;;6.70;2.85;;;10.90;73.40;;;;;;5067769;28;20836;-66
2023/05/24 04:55:29;;;;;;;8.52;2.40;;;10.90;73.20;;;;;;5064211;28;20090;-66
2023/05/24 04:57:56;;;;;;;9.65;2.70;;;10.90;72.90;;;;;;5060758;28;20044;-66
2023/05/24 05:00:23;;;;;;;12.43;2.53;;;10.90;73.00;;;;;;5063286;28;20071;-66
2023/05/24 05:02:50;;;;;;;6.97;2.30;;;10.90;73.10;;;;;;5067182;28;20095;-61
2023/05/24 05:05:17;;;;;;;10.73;2.60;;;11.00;72.50;;;;;;5063901;28;20048;-62
2023/05/24 05:07:44;;;;;;;9.65;2.08;;;10.90;72.20;;;;;;5065685;28;20488;-77
2023/05/24 05:10:12;;;;;;;9.95;2.80;;;11.00;72.30;;;;;;5068321;28;20052;-77
2023/05/24 05:12:40;;;;;;;7.82;2.28;;;11.10;71.70;;;;;;5064104;28;20388;-66
2023/05/24 05:15:09;;;;;;;9.32;2.58;;;11.10;71.30;;;;;;5061614;28;20517;-66
2023/05/24 05:17:36;;;;;;;11.25;2.60;;;11.10;71.20;;;;;;5066316;28;20055;-66
2023/05/24 05:20:03;;;;;;;8.98;2.42;;;11.10;71.00;;;;;;5067471;28;20094;-67
2023/05/24 05:22:30;;;;;;;10.02;3.08;;;11.10;70.60;;;;;;5067904;28;20056;-68
2023/05/24 05:24:57;;;;;;;9.45;2.60;;;11.10;70.80;;;;;;5069887;28;20059;-70
2023/05/24 05:27:25;;;;;;;6.55;2.30;;;11.10;70.80;;;;;;5065633;28;20049;-69
2023/05/24 05:29:52;;;;;;;9.93;2.47;;;11.10;70.90;;;;;;5063661;28;20059;-69
2023/05/24 05:32:19;;;;;;;11.80;2.95;;;11.10;70.90;;;;;;5059790;28;20396;-70
2023/05/24 05:34:46;;;;;;;9.05;2.70;;;11.10;70.80;;;;;;5068135;28;20067;-70
2023/05/24 05:37:12;;;;;;;12.60;2.97;;;11.10;70.50;;;;;;5068807;28;20045;-66
2023/05/24 05:39:39;;;;;;;9.68;2.50;;;11.10;70.30;;;;;;5067152;28;20099;-66
2023/05/24 05:42:07;;;;;;;13.32;2.75;;;11.10;70.30;;;;;;5059872;28;20042;-68
2023/05/24 05:44:35;;;;;;;12.38;3.40;;;11.00;70.30;;;;;;5062592;28;20048;-70
2023/05/24 05:47:02;;;;;;;10.82;3.17;;;11.00;70.50;;;;;;5063242;28;20119;-69
2023/05/24 05:49:30;;;;;;;10.60;3.00;;;11.10;70.20;;;;;;5066345;28;20048;-69
2023/05/24 05:51:57;;;;;;;10.20;2.70;;;11.10;70.20;;;;;;5060910;28;20049;-66
2023/05/24 05:54:24;;;;;;;8.48;2.40;;;11.10;70.00;;;;;;5065634;28;20051;-66
2023/05/24 05:56:51;;;;;;;9.57;2.60;;;11.10;69.20;;;;;;5063926;28;20127;-63
2023/05/24 05:59:18;;;;;;;9.55;2.40;;;11.10;69.20;;;;;;5064987;28;20044;-62
2023/05/24 06:01:47;;;;;;;10.10;2.15;;;11.20;69.30;;;;;;5060581;28;20041;-66
2023/05/24 06:04:14;;;;;;;9.90;2.80;;;11.20;69.30;;;;;;5060823;28;20136;-67
2023/05/24 06:06:43;;;;;;;11.38;2.97;;;11.20;69.10;;;;;;5058881;28;20040;-68
2023/05/24 06:09:09;;;;;;;9.40;2.70;;;11.20;68.10;;;;;;5060423;28;20041;-68
2023/05/24 06:11:37;;;;;;;10.88;2.92;;;11.20;68.30;;;;;;5062011;28;20068;-65
2023/05/24 06:14:04;;;;;;;10.38;2.75;;;11.20;68.40;;;;;;5063888;28;20496;-66
2023/05/24 06:16:31;;;;;;;9.52;2.58;;;11.30;68.30;;;;;;5061064;28;20583;-61
2023/05/24 06:18:59;;;;;;;11.15;3.17;;;11.40;67.80;;;;;;5064540;28;20097;-61
2023/05/24 06:21:28;;;;;;;12.95;3.08;;;11.40;67.70;;;;;;5063491;28;20040;-76
2023/05/24 06:23:56;;;;;;;11.43;2.70;;;11.40;67.40;;;;;;5064749;28;20210;-77
2023/05/24 06:26:23;;;;;;;13.38;3.33;;;11.50;67.00;;;;;;5068763;28;20048;-76
2023/05/24 06:28:50;;;;;;;16.55;3.00;;;11.40;67.20;;;;;;5063827;28;20047;-76
2023/05/24 06:31:17;;;;;;;13.18;2.88;;;11.60;67.00;;;;;;5062667;28;20041;-78
2023/05/24 06:33:44;;;;;;;11.18;2.70;;;11.70;66.60;;;;;;5061068;28;20054;-78
2023/05/24 06:36:12;;;;;;;12.25;2.95;;;11.70;66.10;;;;;;5067637;28;20053;-69
2023/05/24 06:38:39;;;;;;;12.23;3.03;;;11.90;66.00;;;;;;5067486;28;20044;-69
2023/05/24 06:41:07;;;;;;;10.73;3.20;;;12.00;65.50;;;;;;5060207;28;20045;-61
2023/05/24 06:43:34;;;;;;;12.50;2.90;;;12.10;65.10;;;;;;5062513;28;20131;-61
2023/05/24 06:46:01;;;;;;;9.85;2.85;;;12.20;64.80;;;;;;5063229;28;20053;-70
2023/05/24 06:48:28;;;;;;;11.30;2.60;;;12.20;64.70;;;;;;5064846;28;20057;-70
2023/05/24 06:50:55;;;;;;;10.13;2.78;;;12.20;64.20;;;;;;5061908;28;20045;-71
2023/05/24 06:53:24;;;;;;;12.50;2.55;;;12.10;63.90;;;;;;5054344;28;20187;-70
2023/05/24 06:55:50;;;;;;;13.13;2.92;;;12.00;64.30;;;;;;5060067;28;20073;-77
2023/05/24 06:58:18;;;;;;;10.30;2.42;;;12.10;64.20;;;;;;5062450;28;20047;-78
2023/05/24 07:00:45;;;;;;;12.40;2.80;;;12.10;64.50;;;;;;5061548;28;20049;-69
2023/05/24 07:03:13;;;;;;;10.43;3.15;;;12.20;65.00;;;;;;5063288;28;20092;-70
2023/05/24 07:05:41;;;;;;;10.68;2.95;;;12.20;64.60;;;;;;5065747;28;20051;-60
2023/05/24 07:08:08;;;;;;;12.32;3.08;;;12.40;64.60;;;;;;5059861;28;20096;-61
2023/05/24 07:10:43;;;;;;;10.38;3.00;;;12.60;63.90;;;;;;5035974;28;20049;-61
2023/05/24 07:13:12;;;;;;;8.35;2.72;;;12.70;63.70;;;;;;5064886;28;20104;-61
2023/05/24 07:15:41;;;;;;;10.00;3.03;;;12.70;63.90;;;;;;5062700;28;20148;-76
2023/05/24 07:18:08;;;;;;;11.00;2.22;;;13.00;63.50;;;;;;5063157;28;20052;-76
2023/05/24 07:20:35;;;;;;;9.98;2.85;;;13.10;63.10;;;;;;5063222;28;20411;-63
2023/05/24 07:23:02;;;;;;;7.78;2.53;;;13.10;62.60;;;;;;5067982;28;20106;-62
2023/05/24 07:25:29;;;;;;;12.00;2.92;;;13.00;63.30;;;;;;5059339;28;20053;-62
2023/05/24 07:27:58;;;;;;;8.68;2.95;;;13.10;63.10;;;;;;5066080;28;20059;-61
2023/05/24 07:30:25;;;;;;;10.38;2.63;;;13.20;62.60;;;;;;5062010;28;20045;-61
2023/05/24 07:32:52;;;;;;;9.93;2.83;;;13.20;62.40;;;;;;5063176;28;20063;-61
2023/05/24 07:35:20;;;;;;;11.23;3.20;;;13.20;62.40;;;;;;5062007;28;20048;-61
2023/05/24 07:37:46;;;;;;;11.88;2.80;;;13.20;62.50;;;;;;5060357;28;20041;-60
2023/05/24 07:40:13;;;;;;;10.38;2.50;;;13.20;62.20;;;;;;5067610;28;20040;-61
2023/05/24 07:42:41;;;;;;;8.10;2.33;;;13.20;61.90;;;;;;5065525;28;20128;-83
2023/05/24 07:45:10;;;;;;;10.93;2.58;;;13.20;61.90;;;;;;5060228;28;20033;-83
2023/05/24 07:47:37;;;;;;;12.68;2.72;;;13.10;62.20;;;;;;5063892;28;20063;-70
2023/05/24 07:50:05;;;;;;;11.25;3.00;;;13.00;62.30;;;;;;5057595;28;20091;-70
2023/05/24 07:52:32;;;;;;;7.78;2.45;;;13.10;62.10;;;;;;5065088;28;20048;-70
2023/05/24 07:54:59;;;;;;;12.00;2.88;;;13.10;62.00;;;;;;5062674;28;20036;-70
2023/05/24 07:57:26;;;;;;;10.80;2.70;;;13.00;61.90;;;;;;5065952;28;20048;-62
2023/05/24 07:59:53;;;;;;;8.98;3.00;;;13.10;62.10;;;;;;5062942;28;20055;-62
2023/05/24 08:02:21;;;;;;;9.90;2.97;;;13.20;61.70;;;;;;5059061;28;20040;-62
2023/05/24 08:04:48;;;;;;;12.93;3.38;;;13.20;61.30;;;;;;5062669;28;20060;-62
2023/05/24 08:07:16;;;;;;;12.18;3.00;;;13.40;61.50;;;;;;5061568;28;20135;-69
2023/05/24 08:09:43;;;;;;;9.48;2.95;;;13.60;61.10;;;;;;5060596;28;20067;-69
2023/05/24 08:12:10;;;;;;;10.77;2.95;;;13.60;60.60;;;;;;5065357;28;20076;-69
2023/05/24 08:14:37;;;;;;;9.80;2.97;;;13.70;60.50;;;;;;5055820;28;20045;-69
2023/05/24 08:17:04;;;;;;;15.55;3.65;;;13.80;60.00;;;;;;5057957;28;20044;-70
2023/05/24 08:19:34;;;;;;;10.55;3.17;;;13.90;59.60;;;;;;5060860;28;20401;-69
2023/05/24 08:22:04;;;;;;;11.13;2.78;;;13.90;59.60;;;;;;5059235;28;20098;-60
2023/05/24 08:24:31;;;;;;;9.57;2.47;;;13.90;60.40;;;;;;5060359;28;20040;-62
2023/05/24 08:26:58;;;;;;;9.98;2.70;;;13.80;60.30;;;;;;5059830;28;20152;-62
2023/05/24 08:29:25;;;;;;;9.45;3.17;;;13.80;59.80;;;;;;5063486;28;20059;-62
2023/05/24 08:31:52;;;;;;;9.38;2.65;;;13.80;59.80;;;;;;5066441;28;20045;-68
2023/05/24 08:34:19;;;;;;;12.00;2.90;;;13.80;59.60;;;;;;5063396;28;20060;-67
2023/05/24 08:36:47;;;;;;;10.18;3.10;;;13.90;59.60;;;;;;5058751;28;20049;-62
2023/05/24 08:39:14;;;;;;;11.65;3.05;;;14.00;59.60;;;;;;5065872;28;20044;-62
2023/05/24 08:41:41;;;;;;;8.55;3.45;;;14.50;59.20;;;;;;5069697;28;20052;-66
2023/05/24 08:44:08;;;;;;;12.50;2.80;;;14.90;59.00;;;;;;5067224;28;20419;-67
2023/05/24 08:46:36;;;;;;;8.75;2.92;;;15.10;58.90;;;;;;5062617;28;20119;-69
2023/05/24 08:49:04;;;;;;;10.32;3.08;;;15.30;57.80;;;;;;5067988;28;20075;-68
2023/05/24 08:51:31;;;;;;;10.55;2.92;;;15.40;57.60;;;;;;5058698;28;20052;-69
2023/05/24 08:54:00;;;;;;;12.52;2.88;;;15.30;57.50;;;;;;5062526;28;20052;-70
2023/05/24 08:56:28;;;;;;;12.93;3.03;;;15.40;56.80;;;;;;5065732;28;20070;-70
2023/05/24 08:58:55;;;;;;;13.52;3.33;;;15.30;56.50;;;;;;5066308;28;20474;-69
2023/05/24 09:01:24;;;;;;;10.13;2.90;;;15.30;56.80;;;;;;5061275;28;20056;-69
2023/05/24 09:03:53;;;;;;;8.88;3.35;;;15.20;56.80;;;;;;5061383;28;20053;-68
2023/05/24 09:06:21;;;;;;;13.10;3.40;;;15.10;57.20;;;;;;5061183;28;20049;-69
2023/05/24 09:08:51;;;;;;;11.63;3.17;;;15.20;56.80;;;;;;5068041;28;20124;-69
2023/05/24 09:11:21;;;;;;;9.45;3.40;;;15.30;56.90;;;;;;5062606;28;20102;-63
2023/05/24 09:13:49;;;;;;;10.10;3.45;;;15.60;56.80;;;;;;5064236;28;20048;-61
2023/05/24 09:16:16;;;;;;;10.65;3.10;;;15.70;55.60;;;;;;5065190;28;20440;-62
2023/05/24 09:18:43;;;;;;;10.63;3.22;;;15.70;55.90;;;;;;5062429;28;20048;-62
2023/05/24 09:21:10;;;;;;;8.07;2.95;;;15.80;54.80;;;;;;5068409;28;20059;-62
2023/05/24 09:23:37;;;;;;;7.60;3.10;;;16.00;54.20;;;;;;5065727;28;20047;-62
2023/05/24 09:26:08;;;;;;;11.52;3.20;;;16.00;53.00;;;;;;5067512;28;20049;-76
2023/05/24 09:28:37;;;;;;;10.18;3.10;;;16.30;53.50;;;;;;5064509;28;20048;-76
2023/05/24 09:31:04;;;;;;;12.02;3.47;;;16.60;53.80;;;;;;5062367;28;20053;-68
2023/05/24 09:33:32;;;;;;;12.68;4.18;;;16.50;53.50;;;;;;5067873;28;20056;-70
2023/05/24 09:36:00;;;;;;;11.98;4.38;;;16.30;53.20;;;;;;5063871;28;20044;-63
2023/05/24 09:38:30;;;;;;;10.25;3.83;;;16.40;53.60;;;;;;5065619;28;20052;-62
2023/05/24 09:41:02;;;;;;;11.18;3.55;;;16.20;53.30;;;;;;5062543;28;20103;-71
2023/05/24 09:43:30;;;;;;;11.88;3.83;;;16.30;52.90;;;;;;5064531;28;20415;-71
2023/05/24 09:45:59;;;;;;;10.95;4.15;;;16.20;52.90;;;;;;5058695;28;20451;-70
2023/05/24 09:48:26;;;;;;;10.47;3.83;;;16.20;53.90;;;;;;5061895;28;20143;-69
2023/05/24 09:51:03;;;;;;;13.65;4.13;;;16.40;53.60;;;;;;5055457;28;20455;-70
2023/05/24 09:53:32;;;;;;;10.73;4.35;;;16.70;53.10;;;;;;5061298;28;20462;-70
2023/05/24 09:56:00;;;;;;;8.40;3.05;;;17.00;52.40;;;;;;5046444;28;20058;-75
2023/05/24 09:58:31;;;;;;;11.75;3.53;;;16.70;52.20;;;;;;5062999;28;20060;-75
2023/05/24 10:01:07;;;;;;;12.75;4.78;;;16.80;52.80;;;;;;5063403;28;20059;-63
2023/05/24 10:03:34;;;;;;;11.23;4.10;;;17.10;53.60;;;;;;5062770;28;20049;-63
2023/05/24 10:06:03;;;;;;;9.98;3.65;;;17.10;52.40;;;;;;5065317;28;20044;-72
2023/05/24 10:08:31;;;;;;;10.55;3.80;;;17.00;51.80;;;;;;5064471;28;20114;-71
2023/05/24 10:11:00;;;;;;;11.18;3.45;;;16.80;51.80;;;;;;5065611;28;20439;-69
2023/05/24 10:13:27;;;;;;;9.38;2.95;;;16.70;51.00;;;;;;5060083;28;20048;-70
2023/05/24 10:15:54;;;;;;;7.63;2.92;;;16.80;51.30;;;;;;5066223;28;20135;-71
2023/05/24 10:18:23;;;;;;;9.13;2.88;;;16.70;51.50;;;;;;5061659;28;20145;-70
2023/05/24 10:20:51;;;;;;;10.07;2.95;;;16.70;52.10;;;;;;5061211;28;20492;-76
2023/05/24 10:23:21;;;;;;;10.48;2.95;;;17.10;52.00;;;;;;5065230;28;20479;-77
2023/05/24 10:25:52;;;;;;;12.57;3.47;;;17.50;51.60;;;;;;5064037;28;20143;-68
2023/05/24 10:28:22;;;;;;;8.50;3.47;;;17.70;52.10;;;;;;5059798;28;20423;-67
2023/05/24 10:31:01;;;;;;;9.15;3.00;;;17.90;51.60;;;;;;5066472;28;20049;-62
2023/05/24 10:33:31;;;;;;;10.50;3.22;;;18.10;50.90;;;;;;5063110;28;20435;-62
2023/05/24 10:35:58;;;;;;;10.55;3.38;;;18.20;50.00;;;;;;5065083;28;20774;-62
2023/05/24 10:38:25;;;;;;;10.55;2.72;;;18.30;49.80;;;;;;5065210;28;20083;-63
2023/05/24 10:40:52;;;;;;;11.20;3.35;;;18.50;49.10;;;;;;5065598;28;20050;-68
2023/05/24 10:43:21;;;;;;;11.18;3.28;;;18.70;48.80;;;;;;5065126;28;20055;-68
2023/05/24 10:45:51;;;;;;;10.07;2.95;;;18.60;48.50;;;;;;5061431;28;20040;-69
2023/05/24 10:48:39;;;;;;;10.68;3.30;;;18.40;48.10;;;;;;5065948;28;20040;-70
2023/05/24 10:51:34;;;;;;;10.23;3.15;;;18.10;48.80;;;;;;5058112;28;20052;-68
2023/05/24 10:54:14;;;;;;;9.18;3.00;;;18.00;48.30;;;;;;5063453;28;20055;-69
2023/05/24 10:56:44;;;;;;;10.13;3.33;;;18.10;48.80;;;;;;5061663;28;20511;-69
2023/05/24 10:59:28;;;;;;;9.95;3.20;;;18.40;49.70;;;;;;5062491;28;20087;-69
2023/05/24 11:01:57;;;;;;;10.82;3.10;;;18.60;47.30;;;;;;5059206;28;20041;-69
2023/05/24 11:04:26;;;;;;;10.48;3.30;;;18.60;47.30;;;;;;5063897;28;20048;-69
2023/05/24 11:06:59;;;;;;;8.90;3.22;;;18.60;47.50;;;;;;5067832;28;20487;-62
2023/05/24 11:09:27;;;;;;;9.70;3.30;;;18.60;47.50;;;;;;5060224;28;20044;-62
2023/05/24 11:12:06;;;;;;;10.70;3.13;;;18.70;47.00;;;;;;5065734;28;20048;-62
2023/05/24 11:14:36;;;;;;;9.90;3.08;;;18.60;47.10;;;;;;5044751;28;20491;-62
2023/05/24 11:17:04;;;;;;;10.40;3.42;;;18.50;48.00;;;;;;5054093;28;20530;-62
2023/05/24 11:19:35;;;;;;;10.02;3.35;;;18.20;47.00;;;;;;5063484;28;20051;-63
2023/05/24 11:22:03;;;;;;;11.00;3.50;;;18.20;47.40;;;;;;5062060;28;20048;-71
2023/05/24 11:24:30;;;;;;;10.65;3.50;;;18.30;48.00;;;;;;5060091;28;20075;-70
2023/05/24 11:26:59;;;;;;;8.95;3.00;;;18.50;47.30;;;;;;5062020;28;20048;-68
2023/05/24 11:29:26;;;;;;;10.70;3.10;;;18.70;47.90;;;;;;5062465;28;20048;-68
2023/05/24 11:31:56;;;;;;;9.27;3.00;;;18.80;47.10;;;;;;5060292;28;20044;-68
2023/05/24 11:34:25;;;;;;;10.30;3.22;;;19.10;46.30;;;;;;5062654;28;20412;-68
2023/05/24 11:36:54;;;;;;;11.18;3.30;;;19.30;46.40;;;;;;5056524;28;20591;-68
2023/05/24 11:39:22;;;;;;;10.90;3.40;;;19.40;46.10;;;;;;5060681;28;20041;-68
2023/05/24 11:41:49;;;;;;;10.07;3.47;;;19.60;46.90;;;;;;5056032;28;20497;-70
2023/05/24 11:44:18;;;;;;;10.98;3.30;;;19.60;46.80;;;;;;5054360;28;20040;-71
2023/05/24 11:46:46;;;;;;;;;;;19.20;45.30;;;;;;5064222;28;20044;-70
2023/05/24 11:49:13;;;;;;;6.50;2.67;;;18.90;45.10;;;;;;5062322;28;19930;-71
2023/05/24 11:51:40;;;;;;;11.63;3.17;;;18.90;46.20;;;;;;5054014;28;20136;-70
2023/05/24 11:54:10;;;;;;;7.43;2.80;;;19.10;45.90;;;;;;5064879;28;20044;-69
2023/05/24 11:56:37;;;;;;;9.38;3.38;;;19.10;45.90;;;;;;5062575;28;20052;-64
2023/05/24 11:59:11;;;;;;;10.07;2.65;;;19.20;45.70;;;;;;5064001;28;20052;-61
2023/05/24 12:01:39;;;;;;;7.78;3.08;;;19.20;45.20;;;;;;5064081;28;20049;-69
2023/05/24 12:04:08;;;;;;;9.43;3.03;;;19.20;44.30;;;;;;5063045;28;20144;-70
2023/05/24 12:06:36;;;;;;;8.52;3.00;;;19.40;44.80;;;;;;5071157;28;20056;-62
2023/05/24 12:09:07;;;;;;;8.10;3.30;;;19.40;44.70;;;;;;5062874;28;20044;-62
2023/05/24 12:11:38;;;;;;;8.70;2.78;;;19.50;45.00;;;;;;5060860;28;20044;-63
2023/05/24 12:14:05;;;;;;;6.82;2.60;;;19.50;45.20;;;;;;5064690;28;20480;-62
2023/05/24 12:16:32;;;;;;;7.32;2.42;;;19.40;43.40;;;;;;5060363;28;20519;-69
2023/05/24 12:18:59;;;;;;;7.75;2.63;;;19.30;43.10;;;;;;5059159;28;20044;-70
2023/05/24 12:21:30;;;;;;;8.07;2.95;;;19.30;43.20;;;;;;5062347;28;20059;-69
2023/05/24 12:23:57;;;;;;;7.43;2.42;;;19.30;43.70;;;;;;5068529;28;20053;-70
2023/05/24 12:26:24;;;;;;;6.53;2.60;;;19.50;43.00;;;;;;5066998;28;20048;-64
2023/05/24 12:28:57;;;;;;;8.23;2.70;;;19.40;43.20;;;;;;5061649;28;20064;-62
2023/05/24 12:31:25;;;;;;;6.85;2.47;;;19.30;43.70;;;;;;5066855;28;20057;-69
2023/05/24 12:33:52;;;;;;;9.52;2.80;;;19.40;43.70;;;;;;5065914;28;20534;-69
2023/05/24 12:36:19;;;;;;;8.98;2.60;;;19.60;43.90;;;;;;5064872;28;20045;-70
2023/05/24 12:38:47;;;;;;;7.80;2.35;;;19.70;43.40;;;;;;5063253;28;20067;-70
2023/05/24 12:41:13;;;;;;;7.50;2.45;;;19.60;44.30;;;;;;5063191;28;20463;-72
2023/05/24 12:43:43;;;;;;;7.57;2.78;;;19.60;43.40;;;;;;5066217;28;20051;-71
2023/05/24 12:46:11;;;;;;;9.73;2.50;;;19.50;43.30;;;;;;5061767;28;20053;-70
2023/05/24 12:48:39;;;;;;;9.75;3.08;;;19.50;43.70;;;;;;5067235;28;20037;-71